sensor_id;sensor_type;location;lat;lon;timestamp;temperature;humidity
4090;DHT22;2059;48.538;12.146;2024-03-06T00:02:37;9.90;99.90
4090;DHT22;2059;48.538;12.146;2024-03-06T00:07:40;9.80;99.90
4090;DHT22;2059;48.538;12.146;2024-03-06T00:12:42;10.00;99.90
4090;DHT22;2059;48.538;12.146;2024-03-06T00:17:43;9.90;99.90
4090;DHT22;2059;48.538;12.146;2024-03-06T00:22:46;9.80;99.90
4090;DHT22;2059;48.538;12.146;2024-03-06T00:27:48;9.90;99.90
4090;DHT22;2059;48.538;12.146;2024-03-06T00:32:50;9.80;99.90
4090;DHT22;2059;48.538;12.146;2024-03-06T00:37:53;9.70;99.90
4090;DHT22;2059;48.538;12.146;2024-03-06T00:42:55;9.90;99.90
4090;DHT22;2059;48.538;12.146;2024-03-06T00:47:57;9.80;99.90
4090;DHT22;2059;48.538;12.146;2024-03-06T00:53:00;9.60;99.90
4090;DHT22;2059;48.538;12.146;2024-03-06T00:58:02;9.50;99.90
4090;DHT22;2059;48.538;12.146;2024-03-06T01:03:04;9.50;99.90
4090;DHT22;2059;48.538;12.146;2024-03-06T01:08:07;9.40;99.90
4090;DHT22;2059;48.538;12.146;2024-03-06T01:13:09;9.40;99.90
4090;DHT22;2059;48.538;12.146;2024-03-06T01:18:11;9.60;99.90
4090;DHT22;2059;48.538;12.146;2024-03-06T01:23:14;9.60;99.90
4090;DHT22;2059;48.538;12.146;2024-03-06T01:28:17;9.50;99.90
4090;DHT22;2059;48.538;12.146;2024-03-06T01:33:19;9.50;99.90
4090;DHT22;2059;48.538;12.146;2024-03-06T01:38:22;9.40;99.90
4090;DHT22;2059;48.538;12.146;2024-03-06T01:43:25;9.40;99.90
4090;DHT22;2059;48.538;12.146;2024-03-06T01:48:28;9.50;99.90
4090;DHT22;2059;48.538;12.146;2024-03-06T01:53:33;9.50;99.90
4090;DHT22;2059;48.538;12.146;2024-03-06T01:58:35;9.50;99.90
4090;DHT22;2059;48.538;12.146;2024-03-06T02:03:37;9.50;99.90
4090;DHT22;2059;48.538;12.146;2024-03-06T02:08:41;9.30;99.90
4090;DHT22;2059;48.538;12.146;2024-03-06T02:13:42;9.30;99.90
4090;DHT22;2059;48.538;12.146;2024-03-06T02:18:54;9.30;99.90
4090;DHT22;2059;48.538;12.146;2024-03-06T02:23:58;9.30;99.90
4090;DHT22;2059;48.538;12.146;2024-03-06T02:29:00;9.10;99.90
4090;DHT22;2059;48.538;12.146;2024-03-06T02:34:02;9.30;99.90
4090;DHT22;2059;48.538;12.146;2024-03-06T02:39:08;9.00;99.90
4090;DHT22;2059;48.538;12.146;2024-03-06T02:44:10;8.80;99.90
4090;DHT22;2059;48.538;12.146;2024-03-06T02:49:11;8.90;99.90
4090;DHT22;2059;48.538;12.146;2024-03-06T02:54:14;9.00;99.90
4090;DHT22;2059;48.538;12.146;2024-03-06T02:59:16;9.00;99.90
4090;DHT22;2059;48.538;12.146;2024-03-06T03:04:18;9.00;99.90
4090;DHT22;2059;48.538;12.146;2024-03-06T03:09:21;9.10;99.90
4090;DHT22;2059;48.538;12.146;2024-03-06T03:14:23;8.90;99.90
4090;DHT22;2059;48.538;12.146;2024-03-06T03:19:25;8.90;99.90
4090;DHT22;2059;48.538;12.146;2024-03-06T03:24:28;8.70;99.90
4090;DHT22;2059;48.538;12.146;2024-03-06T03:29:30;8.60;99.90
4090;DHT22;2059;48.538;12.146;2024-03-06T03:34:34;8.80;99.90
4090;DHT22;2059;48.538;12.146;2024-03-06T03:39:37;8.20;99.90
4090;DHT22;2059;48.538;12.146;2024-03-06T03:44:39;8.10;99.90
4090;DHT22;2059;48.538;12.146;2024-03-06T03:49:41;8.20;99.90
4090;DHT22;2059;48.538;12.146;2024-03-06T03:54:44;8.20;99.90
4090;DHT22;2059;48.538;12.146;2024-03-06T03:59:46;8.50;99.90
4090;DHT22;2059;48.538;12.146;2024-03-06T04:04:48;8.40;99.90
4090;DHT22;2059;48.538;12.146;2024-03-06T04:09:51;8.50;99.90
4090;DHT22;2059;48.538;12.146;2024-03-06T04:14:53;8.50;99.90
4090;DHT22;2059;48.538;12.146;2024-03-06T04:19:55;8.50;99.90
4090;DHT22;2059;48.538;12.146;2024-03-06T04:24:58;8.30;99.90
4090;DHT22;2059;48.538;12.146;2024-03-06T04:30:00;8.30;99.90
4090;DHT22;2059;48.538;12.146;2024-03-06T04:35:02;8.10;99.90
4090;DHT22;2059;48.538;12.146;2024-03-06T04:40:06;8.00;99.90
4090;DHT22;2059;48.538;12.146;2024-03-06T04:45:11;8.20;99.90
4090;DHT22;2059;48.538;12.146;2024-03-06T04:50:13;8.10;99.90
4090;DHT22;2059;48.538;12.146;2024-03-06T04:55:17;8.30;99.90
4090;DHT22;2059;48.538;12.146;2024-03-06T05:00:22;8.20;99.90
4090;DHT22;2059;48.538;12.146;2024-03-06T05:05:24;8.60;99.90
4090;DHT22;2059;48.538;12.146;2024-03-06T05:10:28;8.40;99.90
4090;DHT22;2059;48.538;12.146;2024-03-06T05:15:30;8.40;99.90
4090;DHT22;2059;48.538;12.146;2024-03-06T05:20:32;8.40;99.90
4090;DHT22;2059;48.538;12.146;2024-03-06T05:25:35;7.90;99.90
4090;DHT22;2059;48.538;12.146;2024-03-06T05:30:37;8.00;99.90
4090;DHT22;2059;48.538;12.146;2024-03-06T05:35:39;8.00;99.90
4090;DHT22;2059;48.538;12.146;2024-03-06T05:40:42;8.10;99.90
4090;DHT22;2059;48.538;12.146;2024-03-06T05:45:46;7.90;99.90
4090;DHT22;2059;48.538;12.146;2024-03-06T05:50:48;8.40;99.90
4090;DHT22;2059;48.538;12.146;2024-03-06T05:55:52;8.50;99.90
4090;DHT22;2059;48.538;12.146;2024-03-06T06:00:54;8.40;99.90
4090;DHT22;2059;48.538;12.146;2024-03-06T06:05:57;8.30;99.90
4090;DHT22;2059;48.538;12.146;2024-03-06T06:11:01;8.30;99.90
4090;DHT22;2059;48.538;12.146;2024-03-06T06:16:04;8.20;99.90
4090;DHT22;2059;48.538;12.146;2024-03-06T06:21:06;8.40;99.90
4090;DHT22;2059;48.538;12.146;2024-03-06T06:26:09;8.10;99.90
4090;DHT22;2059;48.538;12.146;2024-03-06T06:31:11;7.90;99.90
4090;DHT22;2059;48.538;12.146;2024-03-06T06:36:13;8.30;99.90
4090;DHT22;2059;48.538;12.146;2024-03-06T06:41:17;8.20;99.90
4090;DHT22;2059;48.538;12.146;2024-03-06T06:46:19;8.50;99.90
4090;DHT22;2059;48.538;12.146;2024-03-06T06:51:21;8.60;99.90
4090;DHT22;2059;48.538;12.146;2024-03-06T06:56:25;8.30;99.90
4090;DHT22;2059;48.538;12.146;2024-03-06T07:01:27;8.40;99.90
4090;DHT22;2059;48.538;12.146;2024-03-06T07:06:29;8.60;99.90
4090;DHT22;2059;48.538;12.146;2024-03-06T07:11:32;8.60;99.90
4090;DHT22;2059;48.538;12.146;2024-03-06T07:16:34;8.70;99.90
4090;DHT22;2059;48.538;12.146;2024-03-06T07:21:37;9.10;99.90
4090;DHT22;2059;48.538;12.146;2024-03-06T07:26:40;9.00;99.90
4090;DHT22;2059;48.538;12.146;2024-03-06T07:31:42;9.00;99.90
4090;DHT22;2059;48.538;12.146;2024-03-06T07:36:44;9.00;99.90
4090;DHT22;2059;48.538;12.146;2024-03-06T07:41:48;9.50;99.90
4090;DHT22;2059;48.538;12.146;2024-03-06T07:46:49;9.70;99.90
4090;DHT22;2059;48.538;12.146;2024-03-06T07:51:51;9.40;99.90
4090;DHT22;2059;48.538;12.146;2024-03-06T07:56:55;9.70;99.90
4090;DHT22;2059;48.538;12.146;2024-03-06T08:01:57;10.20;99.90
4090;DHT22;2059;48.538;12.146;2024-03-06T08:06:59;10.30;99.90
4090;DHT22;2059;48.538;12.146;2024-03-06T08:12:02;10.60;99.90
4090;DHT22;2059;48.538;12.146;2024-03-06T08:17:03;10.70;99.90
4090;DHT22;2059;48.538;12.146;2024-03-06T08:22:05;10.50;99.90
4090;DHT22;2059;48.538;12.146;2024-03-06T08:27:08;10.70;99.90
4090;DHT22;2059;48.538;12.146;2024-03-06T08:32:10;11.00;99.90
4090;DHT22;2059;48.538;12.146;2024-03-06T08:37:11;11.30;99.90
4090;DHT22;2059;48.538;12.146;2024-03-06T08:42:15;11.20;99.90
4090;DHT22;2059;48.538;12.146;2024-03-06T08:47:18;11.30;99.90
4090;DHT22;2059;48.538;12.146;2024-03-06T08:52:20;11.50;99.90
4090;DHT22;2059;48.538;12.146;2024-03-06T08:57:23;11.60;99.90
4090;DHT22;2059;48.538;12.146;2024-03-06T09:02:28;11.40;99.90
4090;DHT22;2059;48.538;12.146;2024-03-06T09:07:31;11.40;99.90
4090;DHT22;2059;48.538;12.146;2024-03-06T09:12:39;11.60;99.90
4090;DHT22;2059;48.538;12.146;2024-03-06T09:17:41;11.70;99.90
4090;DHT22;2059;48.538;12.146;2024-03-06T09:22:43;12.00;99.60
4090;DHT22;2059;48.538;12.146;2024-03-06T09:27:46;11.90;99.60
4090;DHT22;2059;48.538;12.146;2024-03-06T09:32:48;12.10;99.30
4090;DHT22;2059;48.538;12.146;2024-03-06T09:37:49;12.20;99.30
4090;DHT22;2059;48.538;12.146;2024-03-06T09:42:52;12.20;99.00
4090;DHT22;2059;48.538;12.146;2024-03-06T09:47:54;12.30;98.70
4090;DHT22;2059;48.538;12.146;2024-03-06T09:52:56;12.10;98.70
4090;DHT22;2059;48.538;12.146;2024-03-06T09:57:59;12.00;98.80
4090;DHT22;2059;48.538;12.146;2024-03-06T10:03:04;12.00;98.50
4090;DHT22;2059;48.538;12.146;2024-03-06T10:08:08;12.10;98.30
4090;DHT22;2059;48.538;12.146;2024-03-06T10:13:11;12.10;98.20
4090;DHT22;2059;48.538;12.146;2024-03-06T10:18:14;12.30;97.90
4090;DHT22;2059;48.538;12.146;2024-03-06T10:23:18;12.70;97.00
4090;DHT22;2059;48.538;12.146;2024-03-06T10:28:22;12.60;96.80
4090;DHT22;2059;48.538;12.146;2024-03-06T10:33:26;12.50;96.80
4090;DHT22;2059;48.538;12.146;2024-03-06T10:38:30;12.50;96.70
4090;DHT22;2059;48.538;12.146;2024-03-06T10:43:39;12.50;96.60
4090;DHT22;2059;48.538;12.146;2024-03-06T10:48:42;12.40;96.60
4090;DHT22;2059;48.538;12.146;2024-03-06T10:53:45;11.80;97.30
4090;DHT22;2059;48.538;12.146;2024-03-06T10:58:50;11.70;97.50
4090;DHT22;2059;48.538;12.146;2024-03-06T11:03:52;11.80;96.90
4090;DHT22;2059;48.538;12.146;2024-03-06T11:08:54;11.80;97.00
4090;DHT22;2059;48.538;12.146;2024-03-06T11:14:00;12.10;96.40
4090;DHT22;2059;48.538;12.146;2024-03-06T11:19:06;12.00;96.30
4090;DHT22;2059;48.538;12.146;2024-03-06T11:24:13;12.10;96.50
4090;DHT22;2059;48.538;12.146;2024-03-06T11:29:20;12.20;95.60
4090;DHT22;2059;48.538;12.146;2024-03-06T11:34:22;11.90;95.70
4090;DHT22;2059;48.538;12.146;2024-03-06T11:39:28;11.50;96.10
4090;DHT22;2059;48.538;12.146;2024-03-06T11:44:32;11.30;96.70
4090;DHT22;2059;48.538;12.146;2024-03-06T11:49:34;11.40;96.60
4090;DHT22;2059;48.538;12.146;2024-03-06T11:54:38;11.20;96.90
4090;DHT22;2059;48.538;12.146;2024-03-06T11:59:41;11.10;97.50
4090;DHT22;2059;48.538;12.146;2024-03-06T12:04:43;11.50;96.90
4090;DHT22;2059;48.538;12.146;2024-03-06T12:09:44;11.60;96.90
4090;DHT22;2059;48.538;12.146;2024-03-06T12:14:57;11.80;96.50
4090;DHT22;2059;48.538;12.146;2024-03-06T12:20:00;11.70;96.40
4090;DHT22;2059;48.538;12.146;2024-03-06T12:25:03;11.80;96.50
4090;DHT22;2059;48.538;12.146;2024-03-06T12:30:10;11.80;96.80
4090;DHT22;2059;48.538;12.146;2024-03-06T12:35:23;12.30;95.80
4090;DHT22;2059;48.538;12.146;2024-03-06T12:40:28;12.20;95.80
4090;DHT22;2059;48.538;12.146;2024-03-06T12:45:31;12.30;95.80
4090;DHT22;2059;48.538;12.146;2024-03-06T12:50:33;12.90;95.30
4090;DHT22;2059;48.538;12.146;2024-03-06T12:55:34;13.20;94.60
4090;DHT22;2059;48.538;12.146;2024-03-06T13:00:38;13.50;94.50
4090;DHT22;2059;48.538;12.146;2024-03-06T13:05:40;13.60;94.10
4090;DHT22;2059;48.538;12.146;2024-03-06T13:10:41;14.00;93.40
4090;DHT22;2059;48.538;12.146;2024-03-06T13:15:44;13.50;93.50
4090;DHT22;2059;48.538;12.146;2024-03-06T13:20:48;13.20;93.70
4090;DHT22;2059;48.538;12.146;2024-03-06T13:25:50;13.00;94.20
4090;DHT22;2059;48.538;12.146;2024-03-06T13:30:53;12.80;94.60
4090;DHT22;2059;48.538;12.146;2024-03-06T13:35:55;13.30;94.40
4090;DHT22;2059;48.538;12.146;2024-03-06T13:40:59;13.20;94.20
4090;DHT22;2059;48.538;12.146;2024-03-06T13:46:04;13.40;94.20
4090;DHT22;2059;48.538;12.146;2024-03-06T13:51:16;13.20;94.40
4090;DHT22;2059;48.538;12.146;2024-03-06T13:56:20;13.10;94.30
4090;DHT22;2059;48.538;12.146;2024-03-06T14:01:23;13.00;94.70
4090;DHT22;2059;48.538;12.146;2024-03-06T14:11:57;13.50;94.00
4090;DHT22;2059;48.538;12.146;2024-03-06T14:23:01;13.60;93.60
4090;DHT22;2059;48.538;12.146;2024-03-06T14:28:41;13.50;93.70
4090;DHT22;2059;48.538;12.146;2024-03-06T14:52:51;12.00;95.30
4090;DHT22;2059;48.538;12.146;2024-03-06T14:57:57;12.10;95.60
4090;DHT22;2059;48.538;12.146;2024-03-06T15:03:19;12.20;95.50
4090;DHT22;2059;48.538;12.146;2024-03-06T15:08:30;12.20;95.30
4090;DHT22;2059;48.538;12.146;2024-03-06T15:13:49;12.20;95.70
4090;DHT22;2059;48.538;12.146;2024-03-06T15:18:54;11.90;95.60
4090;DHT22;2059;48.538;12.146;2024-03-06T15:24:12;11.70;95.80
4090;DHT22;2059;48.538;12.146;2024-03-06T15:29:21;11.80;95.90
4090;DHT22;2059;48.538;12.146;2024-03-06T15:34:43;11.90;95.90
4090;DHT22;2059;48.538;12.146;2024-03-06T15:51:43;11.40;96.60
4090;DHT22;2059;48.538;12.146;2024-03-06T15:56:55;11.40;96.60
4090;DHT22;2059;48.538;12.146;2024-03-06T16:02:34;11.20;96.70
4090;DHT22;2059;48.538;12.146;2024-03-06T16:25:31;10.80;97.90
4090;DHT22;2059;48.538;12.146;2024-03-06T16:30:33;10.60;98.70
4090;DHT22;2059;48.538;12.146;2024-03-06T16:35:36;10.30;99.20
4090;DHT22;2059;48.538;12.146;2024-03-06T16:40:39;10.10;99.60
4090;DHT22;2059;48.538;12.146;2024-03-06T16:45:44;10.10;99.80
4090;DHT22;2059;48.538;12.146;2024-03-06T16:51:02;9.70;99.90
4090;DHT22;2059;48.538;12.146;2024-03-06T16:56:19;9.70;99.90
4090;DHT22;2059;48.538;12.146;2024-03-06T17:12:59;9.70;99.90
4090;DHT22;2059;48.538;12.146;2024-03-06T17:18:01;9.90;99.90
4090;DHT22;2059;48.538;12.146;2024-03-06T17:23:04;9.80;99.90
4090;DHT22;2059;48.538;12.146;2024-03-06T17:28:07;9.80;99.90
4090;DHT22;2059;48.538;12.146;2024-03-06T17:33:10;9.60;99.90
4090;DHT22;2059;48.538;12.146;2024-03-06T17:38:17;10.10;99.90
4090;DHT22;2059;48.538;12.146;2024-03-06T17:43:36;10.00;99.90
4090;DHT22;2059;48.538;12.146;2024-03-06T17:48:39;9.70;99.90
4090;DHT22;2059;48.538;12.146;2024-03-06T17:59:30;9.50;99.90
4090;DHT22;2059;48.538;12.146;2024-03-06T18:04:33;9.20;99.90
4090;DHT22;2059;48.538;12.146;2024-03-06T18:09:34;9.00;99.90
4090;DHT22;2059;48.538;12.146;2024-03-06T18:14:38;8.90;99.90
4090;DHT22;2059;48.538;12.146;2024-03-06T18:19:40;8.90;99.90
4090;DHT22;2059;48.538;12.146;2024-03-06T18:24:42;8.80;99.90
4090;DHT22;2059;48.538;12.146;2024-03-06T18:29:45;9.20;99.90
4090;DHT22;2059;48.538;12.146;2024-03-06T18:34:47;9.30;99.90
4090;DHT22;2059;48.538;12.146;2024-03-06T18:39:51;9.20;99.90
4090;DHT22;2059;48.538;12.146;2024-03-06T18:44:55;9.00;99.90
4090;DHT22;2059;48.538;12.146;2024-03-06T18:49:56;9.00;99.90
4090;DHT22;2059;48.538;12.146;2024-03-06T18:54:58;8.70;99.90
4090;DHT22;2059;48.538;12.146;2024-03-06T19:00:01;8.90;99.90
4090;DHT22;2059;48.538;12.146;2024-03-06T19:05:03;9.00;99.90
4090;DHT22;2059;48.538;12.146;2024-03-06T19:10:07;9.30;99.90
4090;DHT22;2059;48.538;12.146;2024-03-06T19:15:10;9.10;99.90
4090;DHT22;2059;48.538;12.146;2024-03-06T19:20:12;9.10;99.90
4090;DHT22;2059;48.538;12.146;2024-03-06T19:25:13;9.30;99.90
4090;DHT22;2059;48.538;12.146;2024-03-06T19:30:16;9.40;99.90
4090;DHT22;2059;48.538;12.146;2024-03-06T19:35:18;9.50;99.90
4090;DHT22;2059;48.538;12.146;2024-03-06T19:40:20;9.40;99.90
4090;DHT22;2059;48.538;12.146;2024-03-06T19:45:23;9.40;99.90
4090;DHT22;2059;48.538;12.146;2024-03-06T19:50:25;9.50;99.90
4090;DHT22;2059;48.538;12.146;2024-03-06T19:55:28;9.50;99.90
4090;DHT22;2059;48.538;12.146;2024-03-06T20:00:31;9.40;99.90
4090;DHT22;2059;48.538;12.146;2024-03-06T20:05:34;9.10;99.90
4090;DHT22;2059;48.538;12.146;2024-03-06T20:10:36;8.90;99.90
4090;DHT22;2059;48.538;12.146;2024-03-06T20:15:39;8.90;99.90
4090;DHT22;2059;48.538;12.146;2024-03-06T20:20:41;8.90;99.90
4090;DHT22;2059;48.538;12.146;2024-03-06T20:25:43;8.80;99.90
4090;DHT22;2059;48.538;12.146;2024-03-06T20:30:46;8.90;99.90
4090;DHT22;2059;48.538;12.146;2024-03-06T20:35:47;8.80;99.90
4090;DHT22;2059;48.538;12.146;2024-03-06T20:40:49;9.10;99.90
4090;DHT22;2059;48.538;12.146;2024-03-06T20:45:53;9.00;99.90
4090;DHT22;2059;48.538;12.146;2024-03-06T20:50:55;8.70;99.90
4090;DHT22;2059;48.538;12.146;2024-03-06T20:55:57;8.70;99.90
4090;DHT22;2059;48.538;12.146;2024-03-06T21:01:00;8.70;99.90
4090;DHT22;2059;48.538;12.146;2024-03-06T21:06:01;8.60;99.90
4090;DHT22;2059;48.538;12.146;2024-03-06T21:11:03;8.90;99.90
4090;DHT22;2059;48.538;12.146;2024-03-06T21:16:09;9.00;99.90
4090;DHT22;2059;48.538;12.146;2024-03-06T21:21:10;9.00;99.90
4090;DHT22;2059;48.538;12.146;2024-03-06T21:26:12;8.80;99.90
4090;DHT22;2059;48.538;12.146;2024-03-06T21:31:15;8.80;99.90
4090;DHT22;2059;48.538;12.146;2024-03-06T21:36:17;9.10;99.90
4090;DHT22;2059;48.538;12.146;2024-03-06T21:41:18;9.10;99.90
4090;DHT22;2059;48.538;12.146;2024-03-06T21:46:21;9.20;99.90
4090;DHT22;2059;48.538;12.146;2024-03-06T21:51:23;9.20;99.90
4090;DHT22;2059;48.538;12.146;2024-03-06T21:56:25;9.20;99.90
4090;DHT22;2059;48.538;12.146;2024-03-06T22:01:28;9.10;99.90
4090;DHT22;2059;48.538;12.146;2024-03-06T22:06:30;8.90;99.90
4090;DHT22;2059;48.538;12.146;2024-03-06T22:11:31;8.80;99.90
4090;DHT22;2059;48.538;12.146;2024-03-06T22:16:35;8.90;99.90
4090;DHT22;2059;48.538;12.146;2024-03-06T22:21:36;8.80;99.90
4090;DHT22;2059;48.538;12.146;2024-03-06T22:26:38;8.70;99.90
4090;DHT22;2059;48.538;12.146;2024-03-06T22:31:42;8.70;99.90
4090;DHT22;2059;48.538;12.146;2024-03-06T22:36:44;8.80;99.90
4090;DHT22;2059;48.538;12.146;2024-03-06T22:41:46;9.30;99.90
4090;DHT22;2059;48.538;12.146;2024-03-06T22:46:49;9.00;99.90
4090;DHT22;2059;48.538;12.146;2024-03-06T22:51:51;9.00;99.90
4090;DHT22;2059;48.538;12.146;2024-03-06T22:56:53;9.00;99.90
4090;DHT22;2059;48.538;12.146;2024-03-06T23:01:56;9.10;99.90
4090;DHT22;2059;48.538;12.146;2024-03-06T23:06:57;8.90;99.90
4090;DHT22;2059;48.538;12.146;2024-03-06T23:11:59;8.80;99.90
4090;DHT22;2059;48.538;12.146;2024-03-06T23:17:02;8.70;99.90
4090;DHT22;2059;48.538;12.146;2024-03-06T23:22:04;8.60;99.90
4090;DHT22;2059;48.538;12.146;2024-03-06T23:27:06;8.40;99.90
4090;DHT22;2059;48.538;12.146;2024-03-06T23:32:09;8.40;99.90
4090;DHT22;2059;48.538;12.146;2024-03-06T23:37:11;8.20;99.90
4090;DHT22;2059;48.538;12.146;2024-03-06T23:42:12;8.50;99.90
4090;DHT22;2059;48.538;12.146;2024-03-06T23:47:15;8.50;99.90
4090;DHT22;2059;48.538;12.146;2024-03-06T23:52:17;8.50;99.90
4090;DHT22;2059;48.538;12.146;2024-03-06T23:57:19;8.30;99.90
